sensor_id;sensor_type;location;lat;lon;timestamp;P1;durP1;ratioP1;P2;durP2;ratioP2
42140;SDS011;27809;51.864;5.646;2022-07-29T00:01:05;1.20;;;0.70;;
42140;SDS011;27809;51.864;5.646;2022-07-29T00:03:31;1.55;;;0.28;;
42140;SDS011;27809;51.864;5.646;2022-07-29T00:05:56;2.67;;;0.43;;
42140;SDS011;27809;51.864;5.646;2022-07-29T00:08:22;1.13;;;0.60;;
42140;SDS011;27809;51.864;5.646;2022-07-29T00:10:48;1.25;;;0.28;;
42140;SDS011;27809;51.864;5.646;2022-07-29T00:13:13;0.82;;;0.30;;
42140;SDS011;27809;51.864;5.646;2022-07-29T00:15:39;3.28;;;0.40;;
42140;SDS011;27809;51.864;5.646;2022-07-29T00:18:05;1.45;;;0.38;;
42140;SDS011;27809;51.864;5.646;2022-07-29T00:20:30;0.65;;;0.30;;
42140;SDS011;27809;51.864;5.646;2022-07-29T00:22:56;1.17;;;0.20;;
42140;SDS011;27809;51.864;5.646;2022-07-29T00:25:22;2.55;;;0.20;;
42140;SDS011;27809;51.864;5.646;2022-07-29T00:27:47;1.45;;;0.30;;
42140;SDS011;27809;51.864;5.646;2022-07-29T00:30:13;4.88;;;0.75;;
42140;SDS011;27809;51.864;5.646;2022-07-29T00:32:39;3.13;;;0.25;;
42140;SDS011;27809;51.864;5.646;2022-07-29T00:35:04;2.05;;;0.40;;
42140;SDS011;27809;51.864;5.646;2022-07-29T00:37:49;2.17;;;0.38;;
42140;SDS011;27809;51.864;5.646;2022-07-29T00:40:15;3.67;;;0.35;;
42140;SDS011;27809;51.864;5.646;2022-07-29T00:42:41;0.98;;;0.30;;
42140;SDS011;27809;51.864;5.646;2022-07-29T00:45:11;1.52;;;0.10;;
42140;SDS011;27809;51.864;5.646;2022-07-29T00:47:38;1.92;;;0.38;;
42140;SDS011;27809;51.864;5.646;2022-07-29T00:50:04;5.60;;;0.35;;
42140;SDS011;27809;51.864;5.646;2022-07-29T00:52:32;0.80;;;0.20;;
42140;SDS011;27809;51.864;5.646;2022-07-29T00:55:03;0.50;;;0.32;;
42140;SDS011;27809;51.864;5.646;2022-07-29T00:57:30;0.57;;;0.40;;
42140;SDS011;27809;51.864;5.646;2022-07-29T00:59:55;3.47;;;0.40;;
42140;SDS011;27809;51.864;5.646;2022-07-29T01:02:21;0.40;;;0.17;;
42140;SDS011;27809;51.864;5.646;2022-07-29T01:04:47;3.10;;;0.32;;
42140;SDS011;27809;51.864;5.646;2022-07-29T01:07:13;0.55;;;0.40;;
42140;SDS011;27809;51.864;5.646;2022-07-29T01:09:40;3.17;;;1.05;;
42140;SDS011;27809;51.864;5.646;2022-07-29T01:12:07;0.60;;;0.30;;
42140;SDS011;27809;51.864;5.646;2022-07-29T01:14:33;2.35;;;0.30;;
42140;SDS011;27809;51.864;5.646;2022-07-29T01:17:01;6.38;;;0.95;;
42140;SDS011;27809;51.864;5.646;2022-07-29T01:22:40;4.68;;;0.60;;
42140;SDS011;27809;51.864;5.646;2022-07-29T01:25:17;7.65;;;2.03;;
42140;SDS011;27809;51.864;5.646;2022-07-29T01:30:25;4.53;;;0.90;;
42140;SDS011;27809;51.864;5.646;2022-07-29T01:32:53;2.47;;;0.57;;
42140;SDS011;27809;51.864;5.646;2022-07-29T01:35:25;6.15;;;1.00;;
42140;SDS011;27809;51.864;5.646;2022-07-29T01:37:55;2.97;;;0.43;;
42140;SDS011;27809;51.864;5.646;2022-07-29T01:43:20;1.33;;;0.30;;
42140;SDS011;27809;51.864;5.646;2022-07-29T01:45:57;2.53;;;0.52;;
42140;SDS011;27809;51.864;5.646;2022-07-29T01:48:30;1.50;;;0.30;;
42140;SDS011;27809;51.864;5.646;2022-07-29T01:51:05;2.28;;;0.47;;
42140;SDS011;27809;51.864;5.646;2022-07-29T01:56:27;2.95;;;0.45;;
42140;SDS011;27809;51.864;5.646;2022-07-29T01:58:57;4.32;;;0.52;;
42140;SDS011;27809;51.864;5.646;2022-07-29T02:01:24;1.60;;;0.40;;
42140;SDS011;27809;51.864;5.646;2022-07-29T02:03:51;3.60;;;0.68;;
42140;SDS011;27809;51.864;5.646;2022-07-29T02:06:21;4.55;;;1.05;;
42140;SDS011;27809;51.864;5.646;2022-07-29T02:08:47;6.18;;;1.15;;
42140;SDS011;27809;51.864;5.646;2022-07-29T02:11:16;2.22;;;0.70;;
42140;SDS011;27809;51.864;5.646;2022-07-29T02:13:41;1.45;;;0.50;;
42140;SDS011;27809;51.864;5.646;2022-07-29T02:16:09;1.02;;;0.40;;
42140;SDS011;27809;51.864;5.646;2022-07-29T02:18:36;2.85;;;0.63;;
42140;SDS011;27809;51.864;5.646;2022-07-29T02:21:04;4.53;;;0.43;;
42140;SDS011;27809;51.864;5.646;2022-07-29T02:23:30;2.15;;;0.70;;
42140;SDS011;27809;51.864;5.646;2022-07-29T02:25:58;1.95;;;0.50;;
42140;SDS011;27809;51.864;5.646;2022-07-29T02:28:25;7.25;;;0.85;;
42140;SDS011;27809;51.864;5.646;2022-07-29T02:30:53;1.83;;;0.88;;
42140;SDS011;27809;51.864;5.646;2022-07-29T02:33:22;8.70;;;0.45;;
42140;SDS011;27809;51.864;5.646;2022-07-29T02:35:50;1.05;;;0.50;;
42140;SDS011;27809;51.864;5.646;2022-07-29T02:38:17;2.22;;;0.40;;
42140;SDS011;27809;51.864;5.646;2022-07-29T02:41:03;1.52;;;0.50;;
42140;SDS011;27809;51.864;5.646;2022-07-29T02:43:32;2.08;;;0.60;;
42140;SDS011;27809;51.864;5.646;2022-07-29T02:46:00;1.00;;;0.45;;
42140;SDS011;27809;51.864;5.646;2022-07-29T02:48:28;1.55;;;0.73;;
42140;SDS011;27809;51.864;5.646;2022-07-29T02:51:03;5.03;;;1.02;;
42140;SDS011;27809;51.864;5.646;2022-07-29T02:53:33;4.72;;;1.05;;
42140;SDS011;27809;51.864;5.646;2022-07-29T02:56:01;2.85;;;1.08;;
42140;SDS011;27809;51.864;5.646;2022-07-29T02:58:36;6.97;;;1.43;;
42140;SDS011;27809;51.864;5.646;2022-07-29T03:01:11;3.45;;;0.77;;
42140;SDS011;27809;51.864;5.646;2022-07-29T03:03:40;7.47;;;1.15;;
42140;SDS011;27809;51.864;5.646;2022-07-29T03:06:10;3.20;;;0.65;;
42140;SDS011;27809;51.864;5.646;2022-07-29T03:08:37;2.83;;;0.73;;
42140;SDS011;27809;51.864;5.646;2022-07-29T03:11:03;6.75;;;1.70;;
42140;SDS011;27809;51.864;5.646;2022-07-29T03:13:29;3.42;;;0.90;;
42140;SDS011;27809;51.864;5.646;2022-07-29T03:15:56;4.97;;;1.13;;
42140;SDS011;27809;51.864;5.646;2022-07-29T03:18:22;2.92;;;0.70;;
42140;SDS011;27809;51.864;5.646;2022-07-29T03:20:48;9.60;;;2.70;;
42140;SDS011;27809;51.864;5.646;2022-07-29T03:23:18;4.40;;;0.70;;
42140;SDS011;27809;51.864;5.646;2022-07-29T03:25:44;3.13;;;1.00;;
42140;SDS011;27809;51.864;5.646;2022-07-29T03:28:10;2.17;;;1.08;;
42140;SDS011;27809;51.864;5.646;2022-07-29T03:30:36;3.97;;;1.10;;
42140;SDS011;27809;51.864;5.646;2022-07-29T03:33:01;5.70;;;1.23;;
42140;SDS011;27809;51.864;5.646;2022-07-29T03:35:27;3.33;;;0.80;;
42140;SDS011;27809;51.864;5.646;2022-07-29T03:37:53;1.77;;;0.77;;
42140;SDS011;27809;51.864;5.646;2022-07-29T03:40:23;2.70;;;0.90;;
42140;SDS011;27809;51.864;5.646;2022-07-29T03:42:55;3.50;;;0.95;;
42140;SDS011;27809;51.864;5.646;2022-07-29T03:45:23;3.60;;;0.85;;
42140;SDS011;27809;51.864;5.646;2022-07-29T03:47:53;6.82;;;1.50;;
42140;SDS011;27809;51.864;5.646;2022-07-29T03:50:21;2.22;;;1.48;;
42140;SDS011;27809;51.864;5.646;2022-07-29T03:52:47;3.75;;;1.10;;
42140;SDS011;27809;51.864;5.646;2022-07-29T03:55:13;3.50;;;0.95;;
42140;SDS011;27809;51.864;5.646;2022-07-29T03:57:40;3.78;;;0.85;;
42140;SDS011;27809;51.864;5.646;2022-07-29T04:00:07;1.50;;;1.15;;
42140;SDS011;27809;51.864;5.646;2022-07-29T04:02:34;1.75;;;1.30;;
42140;SDS011;27809;51.864;5.646;2022-07-29T04:05:01;5.30;;;1.20;;
42140;SDS011;27809;51.864;5.646;2022-07-29T04:07:27;2.10;;;1.10;;
42140;SDS011;27809;51.864;5.646;2022-07-29T04:09:52;3.47;;;1.35;;
42140;SDS011;27809;51.864;5.646;2022-07-29T04:12:18;11.13;;;2.00;;
42140;SDS011;27809;51.864;5.646;2022-07-29T04:14:43;4.00;;;1.23;;
42140;SDS011;27809;51.864;5.646;2022-07-29T04:17:09;2.85;;;1.40;;
42140;SDS011;27809;51.864;5.646;2022-07-29T04:19:34;4.88;;;1.90;;
42140;SDS011;27809;51.864;5.646;2022-07-29T04:22:00;8.52;;;2.00;;
42140;SDS011;27809;51.864;5.646;2022-07-29T04:24:26;4.97;;;1.63;;
42140;SDS011;27809;51.864;5.646;2022-07-29T04:26:52;3.17;;;1.27;;
42140;SDS011;27809;51.864;5.646;2022-07-29T04:29:18;4.60;;;1.90;;
42140;SDS011;27809;51.864;5.646;2022-07-29T04:31:44;5.03;;;1.60;;
42140;SDS011;27809;51.864;5.646;2022-07-29T04:34:10;3.50;;;1.17;;
42140;SDS011;27809;51.864;5.646;2022-07-29T04:36:37;4.43;;;1.95;;
42140;SDS011;27809;51.864;5.646;2022-07-29T04:39:02;4.05;;;1.48;;
42140;SDS011;27809;51.864;5.646;2022-07-29T04:41:28;4.38;;;1.02;;
42140;SDS011;27809;51.864;5.646;2022-07-29T04:43:54;4.05;;;1.10;;
42140;SDS011;27809;51.864;5.646;2022-07-29T04:46:19;3.15;;;1.83;;
42140;SDS011;27809;51.864;5.646;2022-07-29T04:48:46;7.32;;;2.13;;
42140;SDS011;27809;51.864;5.646;2022-07-29T04:51:12;2.80;;;1.45;;
42140;SDS011;27809;51.864;5.646;2022-07-29T04:53:38;3.38;;;1.50;;
42140;SDS011;27809;51.864;5.646;2022-07-29T04:56:04;3.33;;;1.70;;
42140;SDS011;27809;51.864;5.646;2022-07-29T04:58:30;1.95;;;1.42;;
42140;SDS011;27809;51.864;5.646;2022-07-29T05:00:56;6.13;;;2.13;;
42140;SDS011;27809;51.864;5.646;2022-07-29T05:03:21;2.55;;;1.13;;
42140;SDS011;27809;51.864;5.646;2022-07-29T05:05:47;4.07;;;1.17;;
42140;SDS011;27809;51.864;5.646;2022-07-29T05:08:12;4.03;;;1.85;;
42140;SDS011;27809;51.864;5.646;2022-07-29T05:10:38;4.40;;;1.73;;
42140;SDS011;27809;51.864;5.646;2022-07-29T05:13:04;4.68;;;1.33;;
42140;SDS011;27809;51.864;5.646;2022-07-29T05:15:31;9.65;;;2.30;;
42140;SDS011;27809;51.864;5.646;2022-07-29T05:17:57;4.05;;;1.30;;
42140;SDS011;27809;51.864;5.646;2022-07-29T05:20:23;4.80;;;1.65;;
42140;SDS011;27809;51.864;5.646;2022-07-29T05:22:53;3.90;;;1.35;;
42140;SDS011;27809;51.864;5.646;2022-07-29T05:25:19;6.18;;;1.38;;
42140;SDS011;27809;51.864;5.646;2022-07-29T05:27:45;5.85;;;1.83;;
42140;SDS011;27809;51.864;5.646;2022-07-29T05:30:10;2.20;;;1.77;;
42140;SDS011;27809;51.864;5.646;2022-07-29T05:32:36;4.40;;;1.45;;
42140;SDS011;27809;51.864;5.646;2022-07-29T05:35:02;2.78;;;1.23;;
42140;SDS011;27809;51.864;5.646;2022-07-29T05:37:27;2.97;;;1.27;;
42140;SDS011;27809;51.864;5.646;2022-07-29T05:39:53;4.28;;;0.98;;
42140;SDS011;27809;51.864;5.646;2022-07-29T05:42:18;2.72;;;1.63;;
42140;SDS011;27809;51.864;5.646;2022-07-29T05:44:44;4.68;;;2.03;;
42140;SDS011;27809;51.864;5.646;2022-07-29T05:47:10;5.53;;;1.45;;
42140;SDS011;27809;51.864;5.646;2022-07-29T05:49:36;2.58;;;1.08;;
42140;SDS011;27809;51.864;5.646;2022-07-29T05:52:02;3.08;;;1.42;;
42140;SDS011;27809;51.864;5.646;2022-07-29T05:54:27;3.67;;;1.67;;
42140;SDS011;27809;51.864;5.646;2022-07-29T05:56:53;1.55;;;1.35;;
42140;SDS011;27809;51.864;5.646;2022-07-29T05:59:18;2.25;;;1.00;;
42140;SDS011;27809;51.864;5.646;2022-07-29T06:01:44;2.75;;;1.35;;
42140;SDS011;27809;51.864;5.646;2022-07-29T06:04:09;1.40;;;0.82;;
42140;SDS011;27809;51.864;5.646;2022-07-29T06:06:35;3.97;;;1.27;;
42140;SDS011;27809;51.864;5.646;2022-07-29T06:09:01;4.15;;;1.13;;
42140;SDS011;27809;51.864;5.646;2022-07-29T06:11:27;4.35;;;1.20;;
42140;SDS011;27809;51.864;5.646;2022-07-29T06:13:53;6.10;;;1.70;;
42140;SDS011;27809;51.864;5.646;2022-07-29T06:16:19;4.68;;;1.23;;
42140;SDS011;27809;51.864;5.646;2022-07-29T06:18:44;1.00;;;0.45;;
42140;SDS011;27809;51.864;5.646;2022-07-29T06:21:10;2.78;;;0.98;;
42140;SDS011;27809;51.864;5.646;2022-07-29T06:23:36;3.45;;;1.33;;
42140;SDS011;27809;51.864;5.646;2022-07-29T06:26:03;6.13;;;1.55;;
42140;SDS011;27809;51.864;5.646;2022-07-29T06:28:29;7.82;;;1.83;;
42140;SDS011;27809;51.864;5.646;2022-07-29T06:30:54;7.20;;;1.60;;
42140;SDS011;27809;51.864;5.646;2022-07-29T06:33:20;2.05;;;1.30;;
42140;SDS011;27809;51.864;5.646;2022-07-29T06:35:45;7.65;;;2.53;;
42140;SDS011;27809;51.864;5.646;2022-07-29T06:38:12;5.05;;;1.60;;
42140;SDS011;27809;51.864;5.646;2022-07-29T06:40:45;7.05;;;1.75;;
42140;SDS011;27809;51.864;5.646;2022-07-29T06:43:34;2.83;;;1.42;;
42140;SDS011;27809;51.864;5.646;2022-07-29T06:46:06;4.32;;;1.65;;
42140;SDS011;27809;51.864;5.646;2022-07-29T06:48:33;2.10;;;0.90;;
42140;SDS011;27809;51.864;5.646;2022-07-29T06:51:01;6.75;;;1.48;;
42140;SDS011;27809;51.864;5.646;2022-07-29T06:53:27;10.10;;;1.30;;
42140;SDS011;27809;51.864;5.646;2022-07-29T06:55:53;8.25;;;2.47;;
42140;SDS011;27809;51.864;5.646;2022-07-29T06:58:19;3.65;;;1.02;;
42140;SDS011;27809;51.864;5.646;2022-07-29T07:00:45;2.90;;;1.10;;
42140;SDS011;27809;51.864;5.646;2022-07-29T07:03:12;2.88;;;1.60;;
42140;SDS011;27809;51.864;5.646;2022-07-29T07:05:38;1.30;;;0.98;;
42140;SDS011;27809;51.864;5.646;2022-07-29T07:08:04;4.72;;;1.90;;
42140;SDS011;27809;51.864;5.646;2022-07-29T07:10:30;5.25;;;1.60;;
42140;SDS011;27809;51.864;5.646;2022-07-29T07:12:56;4.35;;;1.10;;
42140;SDS011;27809;51.864;5.646;2022-07-29T07:15:21;2.85;;;1.27;;
42140;SDS011;27809;51.864;5.646;2022-07-29T07:17:50;6.43;;;1.80;;
42140;SDS011;27809;51.864;5.646;2022-07-29T07:20:16;2.38;;;0.40;;
42140;SDS011;27809;51.864;5.646;2022-07-29T07:22:42;1.95;;;0.60;;
42140;SDS011;27809;51.864;5.646;2022-07-29T07:25:07;2.00;;;0.38;;
42140;SDS011;27809;51.864;5.646;2022-07-29T07:27:34;1.35;;;0.73;;
42140;SDS011;27809;51.864;5.646;2022-07-29T07:30:00;2.75;;;1.15;;
42140;SDS011;27809;51.864;5.646;2022-07-29T07:32:26;4.22;;;0.85;;
42140;SDS011;27809;51.864;5.646;2022-07-29T07:34:51;2.00;;;0.93;;
42140;SDS011;27809;51.864;5.646;2022-07-29T07:37:17;1.33;;;0.40;;
42140;SDS011;27809;51.864;5.646;2022-07-29T07:39:44;2.55;;;0.30;;
42140;SDS011;27809;51.864;5.646;2022-07-29T07:42:10;4.88;;;0.60;;
42140;SDS011;27809;51.864;5.646;2022-07-29T07:44:37;0.73;;;0.45;;
42140;SDS011;27809;51.864;5.646;2022-07-29T07:47:04;3.03;;;0.40;;
42140;SDS011;27809;51.864;5.646;2022-07-29T07:49:30;2.60;;;0.35;;
42140;SDS011;27809;51.864;5.646;2022-07-29T07:51:55;4.72;;;0.30;;
42140;SDS011;27809;51.864;5.646;2022-07-29T07:54:21;4.35;;;0.82;;
42140;SDS011;27809;51.864;5.646;2022-07-29T07:56:47;9.05;;;1.02;;
42140;SDS011;27809;51.864;5.646;2022-07-29T07:59:16;1.88;;;0.40;;
42140;SDS011;27809;51.864;5.646;2022-07-29T08:01:42;3.53;;;0.40;;
42140;SDS011;27809;51.864;5.646;2022-07-29T08:04:08;1.27;;;0.40;;
42140;SDS011;27809;51.864;5.646;2022-07-29T08:06:34;1.35;;;0.65;;
42140;SDS011;27809;51.864;5.646;2022-07-29T08:09:01;5.30;;;0.50;;
42140;SDS011;27809;51.864;5.646;2022-07-29T08:11:27;3.42;;;0.60;;
42140;SDS011;27809;51.864;5.646;2022-07-29T08:13:53;3.35;;;0.47;;
42140;SDS011;27809;51.864;5.646;2022-07-29T08:16:19;1.95;;;0.40;;
42140;SDS011;27809;51.864;5.646;2022-07-29T08:18:45;2.03;;;0.32;;
42140;SDS011;27809;51.864;5.646;2022-07-29T08:21:11;0.75;;;0.20;;
42140;SDS011;27809;51.864;5.646;2022-07-29T08:23:37;1.60;;;0.70;;
42140;SDS011;27809;51.864;5.646;2022-07-29T08:26:04;0.63;;;0.40;;
42140;SDS011;27809;51.864;5.646;2022-07-29T08:28:31;8.57;;;0.80;;
42140;SDS011;27809;51.864;5.646;2022-07-29T08:30:56;0.52;;;0.20;;
42140;SDS011;27809;51.864;5.646;2022-07-29T08:33:22;1.95;;;0.28;;
42140;SDS011;27809;51.864;5.646;2022-07-29T08:35:47;1.60;;;0.30;;
42140;SDS011;27809;51.864;5.646;2022-07-29T08:38:14;0.90;;;0.73;;
42140;SDS011;27809;51.864;5.646;2022-07-29T08:40:40;1.40;;;0.50;;
42140;SDS011;27809;51.864;5.646;2022-07-29T08:43:07;0.95;;;0.28;;
42140;SDS011;27809;51.864;5.646;2022-07-29T08:45:36;0.93;;;0.35;;
42140;SDS011;27809;51.864;5.646;2022-07-29T08:48:14;1.63;;;0.32;;
42140;SDS011;27809;51.864;5.646;2022-07-29T08:50:41;5.35;;;0.70;;
42140;SDS011;27809;51.864;5.646;2022-07-29T08:53:09;5.45;;;0.65;;
42140;SDS011;27809;51.864;5.646;2022-07-29T08:55:41;1.23;;;0.30;;
42140;SDS011;27809;51.864;5.646;2022-07-29T08:58:09;3.30;;;0.40;;
42140;SDS011;27809;51.864;5.646;2022-07-29T09:00:36;3.40;;;1.05;;
42140;SDS011;27809;51.864;5.646;2022-07-29T09:03:06;0.95;;;0.47;;
42140;SDS011;27809;51.864;5.646;2022-07-29T09:05:35;3.58;;;0.47;;
42140;SDS011;27809;51.864;5.646;2022-07-29T09:08:01;1.30;;;0.50;;
42140;SDS011;27809;51.864;5.646;2022-07-29T09:10:27;3.65;;;0.40;;
42140;SDS011;27809;51.864;5.646;2022-07-29T09:12:56;2.70;;;1.20;;
42140;SDS011;27809;51.864;5.646;2022-07-29T09:15:22;1.85;;;0.47;;
42140;SDS011;27809;51.864;5.646;2022-07-29T09:17:48;4.07;;;1.15;;
42140;SDS011;27809;51.864;5.646;2022-07-29T09:20:16;4.70;;;1.10;;
42140;SDS011;27809;51.864;5.646;2022-07-29T09:22:43;1.92;;;0.40;;
42140;SDS011;27809;51.864;5.646;2022-07-29T09:25:12;2.10;;;0.80;;
42140;SDS011;27809;51.864;5.646;2022-07-29T09:27:37;2.63;;;1.02;;
42140;SDS011;27809;51.864;5.646;2022-07-29T09:30:07;3.47;;;1.10;;
42140;SDS011;27809;51.864;5.646;2022-07-29T09:32:56;3.40;;;0.60;;
42140;SDS011;27809;51.864;5.646;2022-07-29T09:35:25;6.22;;;1.60;;
42140;SDS011;27809;51.864;5.646;2022-07-29T09:37:52;2.88;;;1.45;;
42140;SDS011;27809;51.864;5.646;2022-07-29T09:40:25;4.00;;;0.77;;
42140;SDS011;27809;51.864;5.646;2022-07-29T09:42:52;8.88;;;1.90;;
42140;SDS011;27809;51.864;5.646;2022-07-29T09:47:52;12.90;;;1.95;;
42140;SDS011;27809;51.864;5.646;2022-07-29T09:50:17;5.45;;;1.20;;
42140;SDS011;27809;51.864;5.646;2022-07-29T09:52:49;1.55;;;0.93;;
42140;SDS011;27809;51.864;5.646;2022-07-29T09:55:17;1.30;;;0.52;;
42140;SDS011;27809;51.864;5.646;2022-07-29T09:57:44;4.18;;;0.90;;
42140;SDS011;27809;51.864;5.646;2022-07-29T10:00:15;1.88;;;0.60;;
42140;SDS011;27809;51.864;5.646;2022-07-29T10:02:43;2.97;;;0.50;;
42140;SDS011;27809;51.864;5.646;2022-07-29T10:07:45;1.70;;;0.85;;
42140;SDS011;27809;51.864;5.646;2022-07-29T10:10:26;2.42;;;0.93;;
42140;SDS011;27809;51.864;5.646;2022-07-29T10:12:54;5.35;;;1.60;;
42140;SDS011;27809;51.864;5.646;2022-07-29T10:15:23;2.92;;;0.40;;
42140;SDS011;27809;51.864;5.646;2022-07-29T10:17:50;3.42;;;0.40;;
42140;SDS011;27809;51.864;5.646;2022-07-29T10:20:17;2.80;;;0.88;;
42140;SDS011;27809;51.864;5.646;2022-07-29T10:22:44;2.33;;;0.40;;
42140;SDS011;27809;51.864;5.646;2022-07-29T10:25:11;3.72;;;0.60;;
42140;SDS011;27809;51.864;5.646;2022-07-29T10:27:37;3.40;;;0.40;;
42140;SDS011;27809;51.864;5.646;2022-07-29T10:30:04;2.75;;;0.40;;
42140;SDS011;27809;51.864;5.646;2022-07-29T10:44:03;2.83;;;0.35;;
42140;SDS011;27809;51.864;5.646;2022-07-29T10:46:37;4.63;;;0.70;;
42140;SDS011;27809;51.864;5.646;2022-07-29T10:49:11;4.00;;;0.70;;
42140;SDS011;27809;51.864;5.646;2022-07-29T11:07:34;0.75;;;0.20;;
42140;SDS011;27809;51.864;5.646;2022-07-29T11:15:11;1.77;;;0.98;;
42140;SDS011;27809;51.864;5.646;2022-07-29T11:18:07;1.33;;;0.65;;
42140;SDS011;27809;51.864;5.646;2022-07-29T11:20:36;2.50;;;0.43;;
42140;SDS011;27809;51.864;5.646;2022-07-29T11:26:12;1.85;;;0.65;;
42140;SDS011;27809;51.864;5.646;2022-07-29T11:31:39;3.35;;;0.30;;
42140;SDS011;27809;51.864;5.646;2022-07-29T11:39:32;1.98;;;0.60;;
42140;SDS011;27809;51.864;5.646;2022-07-29T11:47:33;4.03;;;0.60;;
42140;SDS011;27809;51.864;5.646;2022-07-29T11:50:02;1.02;;;0.32;;
42140;SDS011;27809;51.864;5.646;2022-07-29T11:52:33;1.10;;;0.35;;
42140;SDS011;27809;51.864;5.646;2022-07-29T11:58:13;6.78;;;0.40;;
42140;SDS011;27809;51.864;5.646;2022-07-29T12:00:33;1.75;;;0.63;;
42140;SDS011;27809;51.864;5.646;2022-07-29T12:03:10;4.78;;;0.55;;
42140;SDS011;27809;51.864;5.646;2022-07-29T12:05:42;1.33;;;0.50;;
42140;SDS011;27809;51.864;5.646;2022-07-29T12:08:19;1.88;;;0.30;;
42140;SDS011;27809;51.864;5.646;2022-07-29T12:10:47;0.93;;;0.20;;
42140;SDS011;27809;51.864;5.646;2022-07-29T12:13:17;1.90;;;0.60;;
42140;SDS011;27809;51.864;5.646;2022-07-29T12:15:54;0.93;;;0.55;;
42140;SDS011;27809;51.864;5.646;2022-07-29T12:18:22;2.25;;;0.28;;
42140;SDS011;27809;51.864;5.646;2022-07-29T12:20:49;2.08;;;0.50;;
42140;SDS011;27809;51.864;5.646;2022-07-29T12:23:27;1.23;;;0.30;;
42140;SDS011;27809;51.864;5.646;2022-07-29T12:25:52;0.98;;;0.40;;
42140;SDS011;27809;51.864;5.646;2022-07-29T12:28:18;1.70;;;0.30;;
42140;SDS011;27809;51.864;5.646;2022-07-29T12:30:44;1.95;;;0.22;;
42140;SDS011;27809;51.864;5.646;2022-07-29T12:35:54;1.25;;;0.45;;
42140;SDS011;27809;51.864;5.646;2022-07-29T12:38:22;2.33;;;1.05;;
42140;SDS011;27809;51.864;5.646;2022-07-29T12:40:48;2.75;;;0.60;;
42140;SDS011;27809;51.864;5.646;2022-07-29T12:43:16;1.10;;;0.70;;
42140;SDS011;27809;51.864;5.646;2022-07-29T12:45:52;1.83;;;0.65;;
42140;SDS011;27809;51.864;5.646;2022-07-29T12:48:37;1.20;;;0.50;;
42140;SDS011;27809;51.864;5.646;2022-07-29T12:51:05;1.58;;;0.57;;
42140;SDS011;27809;51.864;5.646;2022-07-29T12:53:33;2.08;;;0.30;;
42140;SDS011;27809;51.864;5.646;2022-07-29T12:56:00;2.08;;;0.50;;
42140;SDS011;27809;51.864;5.646;2022-07-29T13:03:25;3.97;;;0.30;;
42140;SDS011;27809;51.864;5.646;2022-07-29T13:05:51;3.53;;;0.30;;
42140;SDS011;27809;51.864;5.646;2022-07-29T13:08:17;4.80;;;0.40;;
42140;SDS011;27809;51.864;5.646;2022-07-29T13:10:46;2.63;;;0.30;;
42140;SDS011;27809;51.864;5.646;2022-07-29T13:13:12;1.42;;;0.50;;
42140;SDS011;27809;51.864;5.646;2022-07-29T13:15:43;1.60;;;0.45;;
42140;SDS011;27809;51.864;5.646;2022-07-29T13:18:27;2.63;;;0.30;;
42140;SDS011;27809;51.864;5.646;2022-07-29T13:20:54;1.95;;;0.35;;
42140;SDS011;27809;51.864;5.646;2022-07-29T13:23:20;2.95;;;1.27;;
42140;SDS011;27809;51.864;5.646;2022-07-29T13:25:46;1.17;;;0.30;;
42140;SDS011;27809;51.864;5.646;2022-07-29T13:28:11;2.33;;;0.90;;
42140;SDS011;27809;51.864;5.646;2022-07-29T13:30:37;1.38;;;0.40;;
42140;SDS011;27809;51.864;5.646;2022-07-29T13:33:04;2.38;;;0.57;;
42140;SDS011;27809;51.864;5.646;2022-07-29T13:35:30;3.03;;;0.60;;
42140;SDS011;27809;51.864;5.646;2022-07-29T13:37:55;1.38;;;0.30;;
42140;SDS011;27809;51.864;5.646;2022-07-29T13:40:21;5.45;;;0.70;;
42140;SDS011;27809;51.864;5.646;2022-07-29T13:42:47;1.17;;;0.40;;
42140;SDS011;27809;51.864;5.646;2022-07-29T13:45:12;1.25;;;0.55;;
42140;SDS011;27809;51.864;5.646;2022-07-29T13:47:38;8.18;;;1.38;;
42140;SDS011;27809;51.864;5.646;2022-07-29T13:50:04;0.90;;;0.30;;
42140;SDS011;27809;51.864;5.646;2022-07-29T13:52:31;2.20;;;0.40;;
42140;SDS011;27809;51.864;5.646;2022-07-29T13:54:57;3.00;;;0.63;;
42140;SDS011;27809;51.864;5.646;2022-07-29T13:57:23;3.70;;;1.10;;
42140;SDS011;27809;51.864;5.646;2022-07-29T13:59:48;4.90;;;0.55;;
42140;SDS011;27809;51.864;5.646;2022-07-29T14:02:15;1.10;;;0.40;;
42140;SDS011;27809;51.864;5.646;2022-07-29T14:04:41;1.50;;;0.38;;
42140;SDS011;27809;51.864;5.646;2022-07-29T14:07:07;1.20;;;0.40;;
42140;SDS011;27809;51.864;5.646;2022-07-29T14:09:32;2.35;;;0.40;;
42140;SDS011;27809;51.864;5.646;2022-07-29T14:11:58;2.35;;;0.70;;
42140;SDS011;27809;51.864;5.646;2022-07-29T14:14:24;2.80;;;0.52;;
42140;SDS011;27809;51.864;5.646;2022-07-29T14:16:49;2.15;;;0.50;;
42140;SDS011;27809;51.864;5.646;2022-07-29T14:19:15;5.00;;;0.60;;
42140;SDS011;27809;51.864;5.646;2022-07-29T14:21:40;1.52;;;0.73;;
42140;SDS011;27809;51.864;5.646;2022-07-29T14:24:06;8.32;;;0.85;;
42140;SDS011;27809;51.864;5.646;2022-07-29T14:26:32;4.45;;;1.38;;
42140;SDS011;27809;51.864;5.646;2022-07-29T14:28:57;2.80;;;0.50;;
42140;SDS011;27809;51.864;5.646;2022-07-29T14:31:23;1.63;;;0.45;;
42140;SDS011;27809;51.864;5.646;2022-07-29T14:33:48;6.90;;;0.68;;
42140;SDS011;27809;51.864;5.646;2022-07-29T14:36:14;2.22;;;0.57;;
42140;SDS011;27809;51.864;5.646;2022-07-29T14:38:40;3.58;;;0.63;;
42140;SDS011;27809;51.864;5.646;2022-07-29T14:41:06;8.15;;;0.77;;
42140;SDS011;27809;51.864;5.646;2022-07-29T14:43:33;3.47;;;0.60;;
42140;SDS011;27809;51.864;5.646;2022-07-29T14:46:00;3.42;;;0.85;;
42140;SDS011;27809;51.864;5.646;2022-07-29T14:48:26;1.73;;;0.55;;
42140;SDS011;27809;51.864;5.646;2022-07-29T14:50:51;2.10;;;0.60;;
42140;SDS011;27809;51.864;5.646;2022-07-29T14:53:17;5.78;;;0.40;;
42140;SDS011;27809;51.864;5.646;2022-07-29T14:55:43;1.38;;;0.32;;
42140;SDS011;27809;51.864;5.646;2022-07-29T14:58:09;2.20;;;0.68;;
42140;SDS011;27809;51.864;5.646;2022-07-29T15:00:35;2.25;;;0.40;;
42140;SDS011;27809;51.864;5.646;2022-07-29T15:03:02;1.42;;;0.40;;
42140;SDS011;27809;51.864;5.646;2022-07-29T15:05:27;7.63;;;1.17;;
42140;SDS011;27809;51.864;5.646;2022-07-29T15:07:53;2.92;;;0.65;;
42140;SDS011;27809;51.864;5.646;2022-07-29T15:10:19;5.40;;;1.27;;
42140;SDS011;27809;51.864;5.646;2022-07-29T15:12:45;3.80;;;1.13;;
42140;SDS011;27809;51.864;5.646;2022-07-29T15:15:11;1.55;;;0.50;;
42140;SDS011;27809;51.864;5.646;2022-07-29T15:17:36;3.22;;;0.68;;
42140;SDS011;27809;51.864;5.646;2022-07-29T15:20:02;3.20;;;0.47;;
42140;SDS011;27809;51.864;5.646;2022-07-29T15:22:28;5.80;;;0.68;;
42140;SDS011;27809;51.864;5.646;2022-07-29T15:24:53;4.80;;;0.60;;
42140;SDS011;27809;51.864;5.646;2022-07-29T15:27:19;1.95;;;0.40;;
42140;SDS011;27809;51.864;5.646;2022-07-29T15:29:44;2.35;;;0.50;;
42140;SDS011;27809;51.864;5.646;2022-07-29T15:32:10;5.65;;;0.40;;
42140;SDS011;27809;51.864;5.646;2022-07-29T15:34:35;3.60;;;0.90;;
42140;SDS011;27809;51.864;5.646;2022-07-29T15:37:02;3.47;;;1.00;;
42140;SDS011;27809;51.864;5.646;2022-07-29T15:39:27;2.10;;;0.40;;
42140;SDS011;27809;51.864;5.646;2022-07-29T15:41:53;1.10;;;0.30;;
42140;SDS011;27809;51.864;5.646;2022-07-29T15:44:19;1.77;;;0.50;;
42140;SDS011;27809;51.864;5.646;2022-07-29T15:46:45;0.50;;;0.28;;
42140;SDS011;27809;51.864;5.646;2022-07-29T15:49:32;5.65;;;0.40;;
42140;SDS011;27809;51.864;5.646;2022-07-29T15:52:04;3.15;;;0.65;;
42140;SDS011;27809;51.864;5.646;2022-07-29T15:54:32;3.65;;;1.10;;
42140;SDS011;27809;51.864;5.646;2022-07-29T15:56:58;1.48;;;0.40;;
42140;SDS011;27809;51.864;5.646;2022-07-29T15:59:24;1.85;;;0.50;;
42140;SDS011;27809;51.864;5.646;2022-07-29T16:01:50;5.22;;;0.70;;
42140;SDS011;27809;51.864;5.646;2022-07-29T16:04:15;2.70;;;0.40;;
42140;SDS011;27809;51.864;5.646;2022-07-29T16:06:41;4.22;;;0.50;;